createdAt,value
2023-05-11T00:01:50.178Z,13.10
2023-05-11T00:04:17.159Z,13.00
2023-05-11T00:06:44.057Z,13.10
2023-05-11T00:09:11.585Z,13.10
2023-05-11T00:11:38.754Z,13.00
2023-05-11T00:14:05.693Z,13.00
2023-05-11T00:16:32.610Z,13.10
2023-05-11T00:18:59.801Z,13.00
2023-05-11T00:21:26.972Z,13.10
2023-05-11T00:23:53.856Z,13.00
2023-05-11T00:26:21.598Z,13.00
2023-05-11T00:28:48.481Z,13.00
2023-05-11T00:31:15.534Z,13.00
2023-05-11T00:33:42.417Z,13.00
2023-05-11T00:36:09.258Z,13.00
2023-05-11T00:38:40.442Z,13.00
2023-05-11T00:41:08.193Z,13.00
2023-05-11T00:43:35.403Z,13.00
2023-05-11T00:46:03.449Z,13.00
2023-05-11T00:48:31.124Z,13.00
2023-05-11T00:51:00.281Z,13.00
2023-05-11T00:53:27.318Z,13.00
2023-05-11T00:55:54.643Z,13.00
2023-05-11T00:58:21.514Z,13.00
2023-05-11T01:00:48.380Z,12.90
2023-05-11T01:03:17.278Z,12.90
2023-05-11T01:05:51.114Z,13.00
2023-05-11T01:08:27.876Z,13.00
2023-05-11T01:11:04.992Z,12.90
2023-05-11T01:13:40.851Z,13.00
2023-05-11T01:16:15.610Z,12.90
2023-05-11T01:18:52.077Z,12.90
2023-05-11T01:21:19.983Z,12.90
2023-05-11T01:23:53.267Z,12.90
2023-05-11T01:26:50.701Z,12.90
2023-05-11T01:29:46.875Z,12.90
2023-05-11T01:32:19.604Z,12.90
2023-05-11T01:34:48.394Z,12.80
2023-05-11T01:37:34.934Z,12.80
2023-05-11T01:40:12.577Z,12.80
2023-05-11T01:42:45.689Z,12.80
2023-05-11T01:45:14.500Z,12.80
2023-05-11T01:47:43.660Z,12.80
2023-05-11T01:50:11.412Z,12.80
2023-05-11T01:52:39.852Z,12.80
2023-05-11T01:55:09.894Z,12.80
2023-05-11T01:57:38.198Z,12.80
2023-05-11T02:00:08.627Z,12.80
2023-05-11T02:02:43.422Z,12.80
2023-05-11T02:05:11.915Z,12.80
2023-05-11T02:07:42.720Z,12.80
2023-05-11T02:10:10.857Z,12.80
2023-05-11T02:12:39.567Z,12.80
2023-05-11T02:15:08.941Z,12.80
2023-05-11T02:17:37.759Z,12.80
2023-05-11T02:20:06.329Z,12.80
2023-05-11T02:22:35.620Z,12.80
2023-05-11T02:25:04.417Z,12.80
2023-05-11T02:27:33.020Z,12.70
2023-05-11T02:29:59.978Z,12.80
2023-05-11T02:32:30.071Z,12.70
2023-05-11T02:35:11.423Z,12.70
2023-05-11T02:37:45.014Z,12.70
2023-05-11T02:40:19.352Z,12.70
2023-05-11T02:42:53.427Z,12.70
2023-05-11T02:45:20.778Z,12.70
2023-05-11T02:47:53.222Z,12.60
2023-05-11T02:50:25.596Z,12.60
2023-05-11T02:52:56.881Z,12.50
2023-05-11T02:55:24.701Z,12.50
2023-05-11T02:57:51.999Z,12.50
2023-05-11T03:00:19.492Z,12.50
2023-05-11T03:02:47.179Z,12.50
2023-05-11T03:05:20.269Z,12.50
2023-05-11T03:07:47.194Z,12.50
2023-05-11T03:10:14.780Z,12.50
2023-05-11T03:12:44.657Z,12.50
2023-05-11T03:15:12.688Z,12.50
2023-05-11T03:17:43.268Z,12.50
2023-05-11T03:20:14.595Z,12.50
2023-05-11T03:22:42.455Z,12.50
2023-05-11T03:25:11.331Z,12.50
2023-05-11T03:27:41.205Z,12.50
2023-05-11T03:30:09.714Z,12.50
2023-05-11T03:32:40.731Z,12.50
2023-05-11T03:35:08.575Z,12.50
2023-05-11T03:37:38.232Z,12.50
2023-05-11T03:40:08.602Z,12.50
2023-05-11T03:42:46.892Z,12.50
2023-05-11T03:45:17.295Z,12.50
2023-05-11T03:47:46.555Z,12.50
2023-05-11T03:50:13.894Z,12.40
2023-05-11T03:52:40.943Z,12.40
2023-05-11T03:55:08.857Z,12.40
2023-05-11T03:57:36.317Z,12.40
2023-05-11T04:00:03.588Z,12.40
2023-05-11T04:02:31.385Z,12.40
2023-05-11T04:04:58.320Z,12.40
2023-05-11T04:07:25.187Z,12.40
2023-05-11T04:09:52.049Z,12.40
2023-05-11T04:12:19.168Z,12.40
2023-05-11T04:14:45.999Z,12.40
2023-05-11T04:17:12.837Z,12.40
2023-05-11T04:19:39.668Z,12.40
2023-05-11T04:22:06.533Z,12.40
2023-05-11T04:24:33.383Z,12.40
2023-05-11T04:27:00.325Z,12.40
2023-05-11T04:29:27.178Z,12.40
2023-05-11T04:31:54.121Z,12.40
2023-05-11T04:34:21.715Z,12.40
2023-05-11T04:36:49.952Z,12.40
2023-05-11T04:39:17.891Z,12.40
2023-05-11T04:41:45.371Z,12.40
2023-05-11T04:44:12.606Z,12.40
2023-05-11T04:46:39.619Z,12.40
2023-05-11T04:49:07.555Z,12.50
2023-05-11T04:51:36.937Z,12.50
2023-05-11T04:54:03.780Z,12.50
2023-05-11T04:56:30.590Z,12.50
2023-05-11T04:58:57.545Z,12.50
2023-05-11T05:01:24.429Z,12.50
2023-05-11T05:03:51.348Z,12.60
2023-05-11T05:06:18.213Z,12.50
2023-05-11T05:08:45.032Z,12.60
2023-05-11T05:11:11.822Z,12.50
2023-05-11T05:13:38.678Z,12.60
2023-05-11T05:16:05.848Z,12.60
2023-05-11T05:18:33.024Z,12.60
2023-05-11T05:21:00.409Z,12.60
2023-05-11T05:23:27.294Z,12.60
2023-05-11T05:25:54.128Z,12.60
2023-05-11T05:28:21.613Z,12.60
2023-05-11T05:30:48.691Z,12.60
2023-05-11T05:33:15.984Z,12.60
2023-05-11T05:35:44.081Z,12.60
2023-05-11T05:38:11.965Z,12.70
2023-05-11T05:40:39.757Z,12.70
2023-05-11T05:43:07.623Z,12.70
2023-05-11T05:45:34.510Z,12.70
2023-05-11T05:48:02.324Z,12.70
2023-05-11T05:50:29.381Z,12.70
2023-05-11T05:52:57.073Z,12.70
2023-05-11T05:55:25.852Z,12.70
2023-05-11T05:57:53.600Z,12.70
2023-05-11T06:00:20.845Z,12.70
2023-05-11T06:02:55.662Z,12.70
2023-05-11T06:05:26.015Z,12.70
2023-05-11T06:08:05.930Z,12.80
2023-05-11T06:10:36.966Z,12.80
2023-05-11T06:13:03.807Z,12.80
2023-05-11T06:15:30.649Z,12.80
2023-05-11T06:18:05.145Z,12.80
2023-05-11T06:20:32.478Z,12.80
2023-05-11T06:22:59.392Z,12.80
2023-05-11T06:25:30.291Z,12.80
2023-05-11T06:27:57.142Z,12.90
2023-05-11T06:30:24.051Z,12.80
2023-05-11T06:32:53.012Z,12.80
2023-05-11T06:35:22.595Z,12.80
2023-05-11T06:37:50.407Z,12.90
2023-05-11T06:40:17.525Z,12.90
2023-05-11T06:42:44.689Z,12.90
2023-05-11T06:45:12.130Z,13.00
2023-05-11T06:47:42.313Z,13.00
2023-05-11T06:50:09.915Z,13.00
2023-05-11T06:52:38.223Z,13.00
2023-05-11T06:55:05.437Z,13.00
2023-05-11T06:57:32.368Z,13.10
2023-05-11T06:59:59.236Z,13.00
2023-05-11T07:02:26.172Z,13.10
2023-05-11T07:04:53.092Z,13.10
2023-05-11T07:07:20.153Z,13.20
2023-05-11T07:09:47.054Z,13.20
2023-05-11T07:12:13.924Z,13.30
2023-05-11T07:14:40.848Z,13.30
2023-05-11T07:17:07.736Z,13.30
2023-05-11T07:19:34.709Z,13.20
2023-05-11T07:22:02.034Z,13.30
2023-05-11T07:24:29.023Z,13.30
2023-05-11T07:26:57.382Z,13.30
2023-05-11T07:29:24.394Z,13.30
2023-05-11T07:31:51.767Z,13.30
2023-05-11T07:34:18.803Z,13.30
2023-05-11T07:36:46.530Z,13.30
2023-05-11T07:39:13.493Z,13.40
2023-05-11T07:41:40.385Z,13.30
2023-05-11T07:44:07.335Z,13.40
2023-05-11T07:46:34.232Z,13.40
2023-05-11T07:49:14.457Z,13.50
2023-05-11T07:51:44.433Z,13.40
2023-05-11T07:54:11.289Z,13.40
2023-05-11T07:56:38.178Z,13.40
2023-05-11T07:59:04.956Z,13.40
2023-05-11T08:01:32.290Z,13.40
2023-05-11T08:03:59.254Z,13.40
2023-05-11T08:06:26.084Z,13.30
2023-05-11T08:08:53.102Z,13.40
2023-05-11T08:11:19.998Z,13.30
2023-05-11T08:13:46.792Z,13.40
2023-05-11T08:16:13.831Z,13.30
2023-05-11T08:18:40.867Z,13.30
2023-05-11T08:21:07.828Z,13.40
2023-05-11T08:23:34.735Z,13.40
2023-05-11T08:26:01.598Z,13.30
2023-05-11T08:28:28.439Z,13.30
2023-05-11T08:30:59.295Z,13.30
2023-05-11T08:33:37.463Z,13.30
2023-05-11T08:36:06.578Z,13.30
2023-05-11T08:38:34.816Z,13.30
2023-05-11T08:41:02.470Z,13.30
2023-05-11T08:43:30.382Z,13.40
2023-05-11T08:46:07.525Z,13.40
2023-05-11T08:48:34.599Z,13.40
2023-05-11T08:51:03.472Z,13.40
2023-05-11T08:53:30.559Z,13.50
2023-05-11T08:56:02.827Z,13.50
2023-05-11T08:58:30.881Z,13.40
2023-05-11T09:00:59.014Z,13.40
2023-05-11T09:03:28.815Z,13.40
2023-05-11T09:05:56.455Z,13.40
2023-05-11T09:08:24.621Z,13.40
2023-05-11T09:10:52.041Z,13.40
2023-05-11T09:13:18.893Z,13.50
2023-05-11T09:15:45.808Z,13.40
2023-05-11T09:18:13.436Z,13.50
2023-05-11T09:20:44.031Z,13.40
2023-05-11T09:23:10.962Z,13.50
2023-05-11T09:25:39.864Z,13.40
2023-05-11T09:28:06.704Z,13.40
2023-05-11T09:30:34.482Z,13.40
2023-05-11T09:33:02.746Z,13.40
2023-05-11T09:35:32.241Z,13.40
2023-05-11T09:38:11.914Z,13.40
2023-05-11T09:40:50.224Z,13.40
2023-05-11T09:43:28.378Z,13.40
2023-05-11T09:45:57.482Z,13.50
2023-05-11T09:48:32.633Z,13.50
2023-05-11T09:51:07.089Z,13.50
2023-05-11T09:53:36.169Z,13.50
2023-05-11T09:56:04.292Z,13.50
2023-05-11T09:58:52.580Z,13.50
2023-05-11T10:01:29.884Z,13.50
2023-05-11T10:04:08.967Z,13.50
2023-05-11T10:06:48.667Z,13.50
2023-05-11T10:09:17.188Z,13.50
2023-05-11T10:11:45.806Z,13.60
2023-05-11T10:14:14.551Z,13.60
2023-05-11T10:16:42.745Z,13.60
2023-05-11T10:19:12.747Z,13.60
2023-05-11T10:21:40.089Z,13.60
2023-05-11T10:24:08.120Z,13.70
2023-05-11T10:26:35.297Z,13.70
2023-05-11T10:29:02.861Z,13.80
2023-05-11T10:31:29.907Z,13.80
2023-05-11T10:33:57.646Z,13.80
2023-05-11T10:36:26.201Z,13.80
2023-05-11T10:38:53.703Z,13.90
2023-05-11T10:41:33.834Z,14.00
2023-05-11T10:44:32.270Z,14.00
2023-05-11T10:47:37.427Z,14.00
2023-05-11T10:50:23.170Z,14.00
2023-05-11T10:52:53.127Z,14.00
2023-05-11T10:55:39.312Z,14.00
2023-05-11T10:58:11.701Z,14.00
2023-05-11T11:01:03.109Z,14.00
2023-05-11T11:03:30.536Z,14.00
2023-05-11T11:06:00.019Z,14.00
2023-05-11T11:08:28.598Z,14.00
2023-05-11T11:10:56.300Z,13.90
2023-05-11T11:13:24.499Z,13.90
2023-05-11T11:15:54.577Z,13.90
2023-05-11T11:18:35.323Z,13.90
2023-05-11T11:21:04.261Z,13.90
2023-05-11T11:23:40.722Z,13.90
2023-05-11T11:26:08.970Z,13.90
2023-05-11T11:28:54.082Z,14.00
2023-05-11T11:31:32.422Z,14.10
2023-05-11T11:34:18.865Z,14.20
2023-05-11T11:36:54.989Z,14.30
2023-05-11T11:39:30.486Z,14.40
2023-05-11T12:03:23.129Z,14.40
2023-05-11T12:05:55.695Z,14.40
2023-05-11T12:08:23.945Z,14.30
2023-05-11T12:10:55.002Z,14.40
2023-05-11T12:13:22.071Z,14.40
2023-05-11T12:15:48.854Z,14.40
2023-05-11T12:18:22.996Z,14.40
2023-05-11T12:20:49.899Z,14.40
2023-05-11T12:23:16.669Z,14.40
2023-05-11T12:25:43.560Z,14.50
2023-05-11T12:28:12.599Z,14.60
2023-05-11T12:30:39.372Z,14.70
2023-05-11T12:33:08.265Z,14.70
2023-05-11T12:35:35.224Z,14.80
2023-05-11T12:38:02.844Z,14.90
2023-05-11T12:40:31.148Z,14.80
2023-05-11T12:43:00.273Z,14.90
2023-05-11T12:45:28.094Z,14.90
2023-05-11T12:47:58.502Z,15.00
2023-05-11T12:50:25.671Z,15.00
2023-05-11T12:52:52.811Z,15.10
2023-05-11T12:55:29.516Z,15.10
2023-05-11T12:58:17.040Z,15.10
2023-05-11T13:00:55.095Z,15.20
2023-05-11T13:03:26.813Z,15.20
2023-05-11T13:06:14.051Z,15.10
2023-05-11T13:08:45.824Z,15.00
2023-05-11T13:11:24.695Z,15.00
2023-05-11T13:13:57.053Z,15.00
2023-05-11T13:16:28.597Z,15.00
2023-05-11T13:19:03.535Z,15.00
2023-05-11T13:21:31.444Z,15.00
2023-05-11T13:23:58.310Z,15.00
2023-05-11T13:26:26.493Z,15.00
2023-05-11T13:29:08.639Z,15.00
2023-05-11T13:31:42.402Z,15.00
2023-05-11T13:34:09.191Z,15.10
2023-05-11T13:36:36.081Z,15.10
2023-05-11T13:39:02.914Z,15.00
2023-05-11T13:41:30.069Z,15.00
2023-05-11T13:43:56.935Z,15.10
2023-05-11T13:46:24.068Z,15.10
2023-05-11T13:48:51.038Z,15.00
2023-05-11T13:51:17.939Z,15.10
2023-05-11T13:53:44.821Z,15.10
2023-05-11T13:56:11.936Z,15.10
2023-05-11T13:58:41.037Z,15.10
2023-05-11T14:01:08.768Z,15.20
2023-05-11T14:03:35.998Z,15.20
2023-05-11T14:06:03.474Z,15.20
2023-05-11T14:08:30.329Z,15.30
2023-05-11T14:10:57.102Z,15.40
2023-05-11T14:13:25.544Z,15.40
2023-05-11T14:15:52.365Z,15.50
2023-05-11T14:18:19.333Z,15.50
2023-05-11T14:20:46.307Z,15.50
2023-05-11T14:23:13.146Z,15.60
2023-05-11T14:25:39.928Z,15.50
2023-05-11T14:28:06.839Z,15.50
2023-05-11T14:30:33.775Z,15.60
2023-05-11T14:33:00.836Z,15.60
2023-05-11T14:35:27.719Z,15.60
2023-05-11T14:37:54.769Z,15.60
2023-05-11T14:40:22.122Z,15.70
2023-05-11T14:42:48.886Z,15.70
2023-05-11T14:45:17.125Z,15.70
2023-05-11T14:47:44.087Z,15.70
2023-05-11T14:50:10.958Z,15.70
2023-05-11T14:52:37.859Z,15.70
2023-05-11T14:55:05.183Z,15.70
2023-05-11T14:57:32.510Z,15.70
2023-05-11T15:00:00.627Z,15.60
2023-05-11T15:02:28.828Z,15.50
2023-05-11T15:04:56.002Z,15.50
2023-05-11T15:07:22.824Z,15.50
2023-05-11T15:09:50.867Z,15.50
2023-05-11T15:12:17.653Z,15.60
2023-05-11T15:14:44.576Z,15.50
2023-05-11T15:17:11.485Z,15.60
2023-05-11T15:19:38.211Z,15.70
2023-05-11T15:22:05.964Z,15.70
2023-05-11T15:24:33.876Z,15.70
2023-05-11T15:27:00.823Z,15.60
2023-05-11T15:29:27.666Z,15.60
2023-05-11T15:31:54.509Z,15.50
2023-05-11T15:34:21.464Z,15.40
2023-05-11T15:36:49.719Z,15.40
2023-05-11T15:39:17.778Z,15.40
2023-05-11T15:41:44.556Z,15.40
2023-05-11T15:44:11.464Z,15.40
2023-05-11T15:46:38.984Z,15.50
2023-05-11T15:49:06.370Z,15.50
2023-05-11T15:51:33.358Z,15.50
2023-05-11T15:54:00.388Z,15.60
2023-05-11T15:56:27.279Z,15.60
2023-05-11T15:58:54.085Z,15.60
2023-05-11T16:01:21.169Z,15.60
2023-05-11T16:03:48.294Z,15.60
2023-05-11T16:06:15.329Z,15.70
2023-05-11T16:08:42.264Z,15.60
2023-05-11T16:11:09.273Z,15.70
2023-05-11T16:13:36.247Z,15.60
2023-05-11T16:16:03.155Z,15.60
2023-05-11T16:18:30.334Z,15.50
2023-05-11T16:20:57.587Z,15.50
2023-05-11T16:23:25.504Z,15.50
2023-05-11T16:25:52.496Z,15.40
2023-05-11T16:28:19.681Z,15.40
2023-05-11T16:30:46.611Z,15.40
2023-05-11T16:33:13.663Z,15.40
2023-05-11T16:35:40.823Z,15.50
2023-05-11T16:38:16.520Z,15.50
2023-05-11T16:40:44.355Z,15.60
2023-05-11T16:43:11.310Z,15.60
2023-05-11T16:45:38.356Z,15.80
2023-05-11T16:48:07.178Z,15.90
2023-05-11T16:50:34.119Z,15.80
2023-05-11T16:53:01.034Z,15.80
2023-05-11T16:55:28.243Z,15.80
2023-05-11T16:57:55.130Z,15.70
2023-05-11T17:00:22.405Z,15.70
2023-05-11T17:02:49.637Z,15.60
2023-05-11T17:05:18.089Z,15.50
2023-05-11T17:07:46.304Z,15.40
2023-05-11T17:10:13.587Z,15.40
2023-05-11T17:12:40.921Z,15.30
2023-05-11T17:15:09.948Z,15.20
2023-05-11T17:17:38.208Z,15.20
2023-05-11T17:20:08.568Z,15.10
2023-05-11T17:22:35.977Z,15.10
2023-05-11T17:25:06.221Z,15.00
2023-05-11T17:27:34.620Z,15.00
2023-05-11T17:30:01.450Z,14.90
2023-05-11T17:32:28.485Z,14.80
2023-05-11T17:34:55.424Z,14.70
2023-05-11T17:37:31.061Z,14.60
2023-05-11T17:39:58.680Z,14.60
2023-05-11T17:42:25.547Z,14.70
2023-05-11T17:44:52.604Z,14.60
2023-05-11T17:47:19.756Z,14.50
2023-05-11T17:49:46.627Z,14.50
2023-05-11T17:52:16.122Z,14.40
2023-05-11T17:54:43.122Z,14.40
2023-05-11T17:57:10.034Z,14.30
2023-05-11T17:59:36.882Z,14.30
2023-05-11T18:02:03.987Z,14.30
2023-05-11T18:04:31.153Z,14.30
2023-05-11T18:06:58.051Z,14.30
2023-05-11T18:09:24.905Z,14.20
2023-05-11T18:11:51.679Z,14.20
2023-05-11T18:14:18.595Z,14.10
2023-05-11T18:16:45.447Z,14.10
2023-05-11T18:19:12.329Z,14.10
2023-05-11T18:21:40.366Z,14.10
2023-05-11T18:24:09.518Z,14.00
2023-05-11T18:26:36.835Z,13.90
2023-05-11T18:29:05.100Z,13.90
2023-05-11T18:31:34.508Z,13.90
2023-05-11T18:34:01.433Z,13.90
2023-05-11T18:36:29.244Z,13.80
2023-05-11T18:38:56.160Z,13.80
2023-05-11T18:41:23.212Z,13.70
2023-05-11T18:43:55.423Z,13.60
2023-05-11T18:50:34.788Z,13.60
2023-05-11T18:53:02.213Z,13.60
2023-05-11T18:55:30.933Z,13.60
2023-05-11T18:57:58.183Z,13.60
2023-05-11T19:00:25.556Z,13.50
2023-05-11T19:02:54.252Z,13.60
2023-05-11T19:05:21.488Z,13.60
2023-05-11T19:07:48.330Z,13.50
2023-05-11T19:10:15.279Z,13.50
2023-05-11T19:12:42.250Z,13.50
2023-05-11T19:15:09.575Z,13.50
2023-05-11T19:17:36.502Z,13.40
2023-05-11T19:20:03.921Z,13.40
2023-05-11T19:22:30.674Z,13.40
2023-05-11T19:24:57.587Z,13.40
2023-05-11T19:27:24.352Z,13.40
2023-05-11T19:29:51.427Z,13.40
2023-05-11T19:32:23.318Z,13.40
2023-05-11T19:34:55.229Z,13.40
2023-05-11T19:37:22.121Z,13.30
2023-05-11T19:39:49.297Z,13.20
2023-05-11T19:42:17.970Z,13.20
2023-05-11T19:44:50.428Z,13.20
2023-05-11T19:47:17.386Z,13.10
2023-05-11T19:49:44.276Z,13.10
2023-05-11T19:52:11.159Z,13.10
2023-05-11T19:54:40.123Z,13.10
2023-05-11T19:57:06.976Z,13.10
2023-05-11T19:59:33.790Z,13.10
2023-05-11T20:02:04.706Z,13.10
2023-05-11T20:04:31.583Z,13.10
2023-05-11T20:06:58.350Z,13.10
2023-05-11T20:09:25.692Z,13.10
2023-05-11T20:11:52.586Z,13.10
2023-05-11T20:14:19.453Z,13.00
2023-05-11T20:16:48.464Z,13.00
2023-05-11T20:19:15.522Z,13.00
2023-05-11T20:21:42.713Z,13.00
2023-05-11T20:24:09.499Z,13.00
2023-05-11T20:26:39.297Z,13.10
2023-05-11T20:29:07.773Z,13.00
2023-05-11T20:31:34.657Z,13.00
2023-05-11T20:36:31.391Z,13.00
2023-05-11T20:38:59.109Z,13.00
2023-05-11T20:41:27.740Z,13.00
2023-05-11T20:43:54.836Z,13.00
2023-05-11T20:46:21.746Z,13.00
2023-05-11T20:48:51.764Z,13.00
2023-05-11T20:51:23.345Z,13.00
2023-05-11T20:53:50.659Z,13.00
2023-05-11T20:56:17.395Z,13.00
2023-05-11T20:58:47.382Z,13.00
2023-05-11T21:01:14.201Z,13.00
2023-05-11T21:03:41.547Z,13.00
2023-05-11T21:06:08.858Z,13.00
2023-05-11T21:08:36.368Z,12.90
2023-05-11T21:11:03.321Z,12.90
2023-05-11T21:13:30.573Z,12.90
2023-05-11T21:15:57.372Z,12.90
2023-05-11T21:18:29.083Z,13.00
2023-05-11T21:20:55.875Z,12.90
2023-05-11T21:23:22.686Z,12.90
2023-05-11T21:25:54.015Z,13.00
2023-05-11T21:28:21.015Z,12.90
2023-05-11T21:30:47.778Z,12.90
2023-05-11T21:33:15.135Z,12.90
2023-05-11T21:35:42.004Z,12.90
2023-05-11T21:38:08.916Z,12.90
2023-05-11T21:40:35.696Z,12.90
2023-05-11T21:43:02.475Z,12.90
2023-05-11T21:45:29.258Z,12.90
2023-05-11T21:47:56.202Z,12.90
2023-05-11T21:50:22.993Z,12.90
2023-05-11T21:52:49.800Z,12.90
2023-05-11T21:55:16.688Z,12.90
2023-05-11T21:57:43.500Z,12.80
2023-05-11T22:00:15.571Z,12.80
2023-05-11T22:02:42.438Z,12.80
2023-05-11T22:05:10.305Z,12.80
2023-05-11T22:07:37.293Z,12.80
2023-05-11T22:10:04.278Z,12.80
2023-05-11T22:12:31.096Z,12.80
2023-05-11T22:14:58.047Z,12.80
2023-05-11T22:17:24.829Z,12.80
2023-05-11T22:19:51.887Z,12.80
2023-05-11T22:22:18.672Z,12.80
2023-05-11T22:24:45.446Z,12.80
2023-05-11T22:27:15.608Z,12.80
2023-05-11T22:29:43.296Z,12.90
2023-05-11T22:32:10.453Z,12.80
2023-05-11T22:34:37.585Z,12.80
2023-05-11T22:37:05.693Z,12.80
2023-05-11T22:39:33.261Z,12.80
2023-05-11T22:42:00.034Z,12.80
2023-05-11T22:44:27.724Z,12.80
2023-05-11T22:46:59.171Z,12.80
2023-05-11T22:49:26.853Z,12.80
2023-05-11T22:51:56.766Z,12.80
2023-05-11T22:54:23.508Z,12.80
2023-05-11T22:56:50.332Z,12.80
2023-05-11T22:59:17.053Z,12.80
2023-05-11T23:01:43.886Z,12.80
2023-05-11T23:04:10.687Z,12.80
2023-05-11T23:06:37.538Z,12.80
2023-05-11T23:09:04.949Z,12.80
2023-05-11T23:11:31.792Z,12.80
2023-05-11T23:13:58.584Z,12.80
2023-05-11T23:16:25.516Z,12.80
2023-05-11T23:18:52.388Z,12.80
2023-05-11T23:21:19.302Z,12.80
2023-05-11T23:23:46.331Z,12.80
2023-05-11T23:26:13.817Z,12.80
2023-05-11T23:28:41.393Z,12.70
2023-05-11T23:31:08.156Z,12.80
2023-05-11T23:33:35.005Z,12.80
2023-05-11T23:36:02.168Z,12.70
2023-05-11T23:38:29.014Z,12.70
2023-05-11T23:40:55.752Z,12.70
2023-05-11T23:43:22.832Z,12.70
2023-05-11T23:45:49.578Z,12.70
2023-05-11T23:48:16.334Z,12.70
2023-05-11T23:50:43.150Z,12.70
2023-05-11T23:53:10.135Z,12.70
2023-05-11T23:55:37.154Z,12.60
2023-05-11T23:58:04.002Z,12.70
